Time;durP1;ratioP1;P1;durP2;ratioP2;P2;SDS_P1;SDS_P2;PMS_P1;PMS_P2;Temp;Humidity;BMP_temperature;BMP_pressure;BME280_temperature;BME280_humidity;BME280_pressure;Samples;Min_cycle;Max_cycle;Signal;HPM_P1;HPM_P2
2022/04/29 00:00:24;;;;;;;6.87;6.27;;;;;;;16.22;85.51;99972.69;5116173;28;20194;-69
2022/04/29 00:02:52;;;;;;;7.53;6.83;;;;;;;16.09;87.00;99968.28;5116051;28;20195;-69
2022/04/29 00:05:19;;;;;;;8.57;7.27;;;;;;;16.08;87.60;99971.19;5116298;28;20194;-69
2022/04/29 00:07:46;;;;;;;7.70;7.00;;;;;;;16.08;88.46;99955.91;5116915;28;20671;-69
2022/04/29 00:10:16;;;;;;;8.10;7.40;;;;;;;15.93;90.56;99956.25;5115890;28;20282;-69
2022/04/29 00:12:43;;;;;;;9.83;8.23;;;;;;;15.77;91.73;99954.13;5115570;28;20195;-69
2022/04/29 00:15:12;;;;;;;9.53;8.77;;;;;;;15.56;92.71;99951.81;5115811;28;20191;-68
2022/04/29 00:17:39;;;;;;;9.30;8.50;;;;;;;15.48;93.42;99960.09;5115518;28;20201;-70
2022/04/29 00:20:07;;;;;;;13.37;9.80;;;;;;;15.40;94.23;99957.69;5115771;28;20195;-70
2022/04/29 00:22:35;;;;;;;11.20;9.60;;;;;;;15.34;94.07;99953.19;5115707;28;20339;-69
2022/04/29 00:25:02;;;;;;;10.40;9.50;;;;;;;15.34;94.14;99944.31;5115554;28;20251;-69
2022/04/29 00:27:29;;;;;;;10.90;10.00;;;;;;;15.35;93.68;99944.13;5115324;28;20256;-69
2022/04/29 00:29:56;;;;;;;10.87;10.07;;;;;;;15.28;94.22;99935.28;5115509;28;20194;-69
2022/04/29 00:32:25;;;;;;;10.47;9.67;;;;;;;15.28;93.79;99937.16;5116004;28;20245;-68
2022/04/29 00:34:52;;;;;;;11.23;10.20;;;;;;;15.21;93.36;99937.19;5115195;28;20195;-69
2022/04/29 00:37:19;;;;;;;10.57;9.67;;;;;;;15.11;94.21;99939.50;5115445;28;20186;-69
2022/04/29 00:39:46;;;;;;;11.43;10.30;;;;;;;15.13;94.06;99939.28;5115901;28;20302;-70
2022/04/29 00:42:13;;;;;;;11.07;10.17;;;;;;;15.08;94.57;99947.94;5116080;28;20195;-69
2022/04/29 00:44:40;;;;;;;11.50;10.37;;;;;;;15.17;94.70;99952.03;5115555;28;20190;-69
2022/04/29 00:47:09;;;;;;;11.90;10.87;;;;;;;15.15;94.82;99943.38;5115569;28;20198;-69
2022/04/29 00:49:37;;;;;;;11.20;10.30;;;;;;;15.26;95.01;99936.53;5114786;28;20194;-69
2022/04/29 00:52:07;;;;;;;11.80;10.70;;;;;;;15.20;95.30;99932.06;5115049;28;20214;-70
2022/04/29 00:54:37;;;;;;;12.03;10.97;;;;;;;15.16;95.82;99926.28;5115110;28;20227;-69
2022/04/29 00:57:08;;;;;;;13.10;10.87;;;;;;;15.08;95.74;99929.22;5115083;28;20191;-69
2022/04/29 00:59:39;;;;;;;13.17;11.13;;;;;;;14.98;95.88;99931.53;5115342;28;20187;-68
2022/04/29 01:02:09;;;;;;;12.17;11.00;;;;;;;14.96;96.55;99922.91;5114471;28;20182;-69
2022/04/29 01:04:41;;;;;;;12.43;11.40;;;;;;;15.04;96.59;99925.31;5115128;28;20191;-69
2022/04/29 01:07:08;;;;;;;15.23;11.73;;;;;;;14.86;98.04;99927.91;5115067;28;20283;-69
2022/04/29 01:09:35;;;;;;;12.47;11.40;;;;;;;14.87;98.07;99926.84;5115082;28;20187;-69
2022/04/29 01:12:02;;;;;;;13.30;12.10;;;;;;;14.88;98.37;99931.19;5114416;28;20219;-69
2022/04/29 01:14:29;;;;;;;13.87;12.67;;;;;;;14.89;98.33;99930.16;5114593;28;20191;-69
2022/04/29 01:16:58;;;;;;;14.87;12.90;;;;;;;14.92;97.82;99928.91;5114367;28;20190;-69
2022/04/29 01:19:25;;;;;;;13.90;12.53;;;;;;;14.81;97.57;99924.22;5114930;28;20195;-69
2022/04/29 01:21:53;;;;;;;13.40;12.20;;;;;;;14.83;98.09;99925.63;5114350;28;20198;-70
2022/04/29 01:24:21;;;;;;;13.87;12.43;;;;;;;14.85;98.76;99923.59;5114773;28;20195;-70
2022/04/29 01:26:48;;;;;;;14.07;12.60;;;;;;;14.88;98.50;99928.53;5114192;28;20203;-70
2022/04/29 01:29:16;;;;;;;13.13;11.80;;;;;;;14.93;97.46;99922.50;5114170;28;20248;-69
2022/04/29 01:31:43;;;;;;;12.73;11.73;;;;;;;15.05;97.38;99929.66;5114311;28;20309;-69
2022/04/29 01:34:10;;;;;;;16.37;12.70;;;;;;;15.17;96.80;99925.28;5114629;28;20194;-69
2022/04/29 01:36:37;;;;;;;13.63;11.33;;;;;;;15.22;96.01;99919.25;5114564;28;20195;-69
2022/04/29 01:39:03;;;;;;;12.57;11.47;;;;;;;15.25;95.31;99917.00;5114820;28;20255;-68
2022/04/29 01:41:32;;;;;;;13.13;11.87;;;;;;;15.29;95.26;99920.88;5113867;28;20252;-69
2022/04/29 01:43:59;;;;;;;13.73;12.53;;;;;;;15.31;95.25;99910.75;5113824;28;20682;-68
2022/04/29 01:46:25;;;;;;;14.50;12.20;;;;;;;15.33;95.56;99913.22;5113713;28;20679;-69
2022/04/29 01:48:52;;;;;;;12.87;11.77;;;;;;;15.38;95.46;99910.75;5114294;28;20187;-68
2022/04/29 01:51:19;;;;;;;12.60;11.53;;;;;;;15.38;94.84;99908.91;5114459;28;20248;-68
2022/04/29 01:53:53;;;;;;;14.07;12.80;;;;;;;15.42;94.13;99915.47;5113675;28;20747;-68
2022/04/29 01:56:20;;;;;;;13.50;11.87;;;;;;;15.44;93.54;99912.56;5113685;28;20651;-69
2022/04/29 01:58:48;;;;;;;14.10;12.60;;;;;;;15.40;93.42;99909.50;5113893;28;20291;-70
2022/04/29 02:01:15;;;;;;;15.33;12.13;;;;;;;15.44;93.32;99909.91;5113749;28;20198;-70
2022/04/29 02:03:41;;;;;;;13.07;11.87;;;;;;;15.42;92.95;99912.78;5113744;28;20190;-70
2022/04/29 02:06:08;;;;;;;13.70;11.00;;;;;;;15.37;93.55;99909.94;5113733;28;20267;-70
2022/04/29 02:08:35;;;;;;;14.60;11.93;;;;;;;15.32;93.46;99915.06;5113627;28;20240;-69
2022/04/29 02:11:01;;;;;;;13.40;12.30;;;;;;;15.25;93.06;99910.81;5113460;28;20710;-70
2022/04/29 02:13:28;;;;;;;14.20;12.60;;;;;;;15.24;93.66;99912.66;5112606;28;20679;-69
2022/04/29 02:15:57;;;;;;;13.57;12.30;;;;;;;15.17;93.52;99919.94;5113466;28;20202;-68
2022/04/29 02:18:24;;;;;;;12.80;11.70;;;;;;;15.07;94.13;99919.56;5113492;28;20190;-70
2022/04/29 02:20:50;;;;;;;13.97;12.43;;;;;;;15.11;93.55;99920.75;5113447;28;20255;-70
2022/04/29 02:23:17;;;;;;;13.87;12.47;;;;;;;15.06;93.94;99912.56;5113022;28;20567;-70
2022/04/29 02:25:45;;;;;;;13.77;12.37;;;;;;;15.01;93.44;99914.25;5113309;28;20191;-70
2022/04/29 02:28:11;;;;;;;13.70;12.50;;;;;;;15.07;93.56;99924.09;5113838;28;20197;-69
2022/04/29 02:30:40;;;;;;;13.00;11.73;;;;;;;15.11;93.52;99920.75;5112888;28;20244;-70
2022/04/29 02:33:08;;;;;;;13.87;12.63;;;;;;;15.16;93.25;99918.25;5113266;28;20321;-69
2022/04/29 02:35:35;;;;;;;13.07;11.87;;;;;;;15.08;93.35;99918.50;5112908;28;20191;-69
2022/04/29 02:38:01;;;;;;;13.13;11.90;;;;;;;15.09;93.01;99917.50;5113023;28;20282;-69
2022/04/29 02:40:29;;;;;;;13.83;12.53;;;;;;;15.19;93.02;99923.19;5112776;28;20212;-69
2022/04/29 02:42:55;;;;;;;14.10;12.63;;;;;;;15.14;93.38;99917.66;5113908;28;20607;-68
2022/04/29 02:45:22;;;;;;;14.40;13.10;;;;;;;15.12;92.70;99930.44;5113186;28;20190;-69
2022/04/29 02:47:49;;;;;;;14.23;12.90;;;;;;;15.07;92.79;99929.47;5112970;28;20247;-68
2022/04/29 02:50:17;;;;;;;15.63;14.07;;;;;;;15.05;92.09;99929.66;5113785;28;20186;-69
2022/04/29 02:52:43;;;;;;;16.53;14.53;;;;;;;14.98;91.97;99931.53;5112443;28;20780;-68
2022/04/29 02:55:10;;;;;;;14.43;12.93;;;;;;;14.99;92.14;99935.84;5112835;28;20198;-69
2022/04/29 02:57:37;;;;;;;14.40;12.90;;;;;;;14.92;91.98;99937.75;5112817;28;20186;-69
2022/04/29 03:00:05;;;;;;;13.67;12.50;;;;;;;14.85;92.78;99944.97;5113065;28;20186;-69
2022/04/29 03:02:31;;;;;;;14.37;12.97;;;;;;;14.75;91.96;99943.78;5112430;28;20736;-69
2022/04/29 03:04:58;;;;;;;14.10;12.23;;;;;;;14.80;91.81;99950.16;5112426;28;20615;-69
2022/04/29 03:07:26;;;;;;;15.27;13.57;;;;;;;14.74;92.17;99939.47;5113400;28;20292;-69
2022/04/29 03:09:53;;;;;;;13.87;12.50;;;;;;;14.66;92.72;99940.53;5112395;28;20240;-69
2022/04/29 03:12:23;;;;;;;13.43;12.07;;;;;;;14.67;92.32;99950.19;5112307;28;20699;-70
2022/04/29 03:14:50;;;;;;;13.03;11.83;;;;;;;14.79;92.25;99955.72;5112659;28;20190;-69
2022/04/29 03:19:58;;;;;;;14.20;12.80;;;;;;;14.92;90.94;99959.16;5111340;28;20725;-69
2022/04/29 03:22:26;;;;;;;12.80;11.70;;;;;;;14.90;90.72;99966.56;5113415;28;20194;-69
2022/04/29 03:24:53;;;;;;;13.53;12.40;;;;;;;14.99;90.48;99965.28;5113508;28;20557;-69
2022/04/29 03:27:20;;;;;;;13.43;12.10;;;;;;;15.10;89.88;99966.47;5116471;28;20740;-69
2022/04/29 03:29:47;;;;;;;14.60;13.23;;;;;;;15.06;89.23;99965.25;5116444;28;20663;-69
2022/04/29 03:32:14;;;;;;;16.53;12.63;;;;;;;15.08;89.60;99969.34;5116558;28;20267;-69
2022/04/29 03:34:40;;;;;;;14.50;12.47;;;;;;;15.06;89.97;99971.44;5117261;28;20190;-69
2022/04/29 03:37:07;;;;;;;15.30;13.57;;;;;;;14.97;90.99;99959.34;5115977;28;20194;-69
2022/04/29 03:39:35;;;;;;;13.33;12.13;;;;;;;14.88;90.30;99967.81;5116205;28;20655;-69
2022/04/29 03:42:02;;;;;;;12.90;11.70;;;;;;;14.84;90.75;99969.25;5116538;28;20190;-69
2022/04/29 03:44:28;;;;;;;15.47;11.93;;;;;;;14.72;91.24;99962.94;5116111;28;20256;-69
2022/04/29 03:46:55;;;;;;;13.03;11.83;;;;;;;14.75;92.00;99963.31;5116344;28;20195;-70
2022/04/29 03:49:37;;;;;;;13.90;12.50;;;;;;;14.67;91.18;99954.72;5116350;28;20628;-69
2022/04/29 03:52:04;;;;;;;13.13;12.00;;;;;;;14.67;90.18;99960.88;5116928;28;20625;-68
2022/04/29 03:54:31;;;;;;;13.30;12.07;;;;;;;14.73;90.47;99960.06;5115923;28;20191;-69
2022/04/29 03:57:00;;;;;;;13.63;12.23;;;;;;;14.72;89.97;99969.13;5117049;28;20187;-69
2022/04/29 03:59:27;;;;;;;13.40;12.20;;;;;;;14.54;90.53;99968.94;5115806;28;20734;-70
2022/04/29 04:01:53;;;;;;;14.07;12.67;;;;;;;14.59;90.85;99963.78;5116160;28;20578;-69
2022/04/29 04:04:20;;;;;;;13.17;11.93;;;;;;;14.61;90.11;99977.78;5116921;28;20191;-68
2022/04/29 04:06:53;;;;;;;13.13;11.93;;;;;;;14.72;89.03;99973.63;5116142;28;20279;-69
2022/04/29 04:09:22;;;;;;;12.00;11.00;;;;;;;14.81;87.91;99978.53;5115744;28;20243;-69
2022/04/29 04:11:49;;;;;;;14.23;12.13;;;;;;;14.88;87.75;99976.66;5115807;28;20305;-68
2022/04/29 04:14:18;;;;;;;13.70;11.93;;;;;;;15.02;86.96;99986.25;5115635;28;20630;-68
2022/04/29 04:16:45;;;;;;;13.67;12.57;;;;;;;15.01;86.67;99984.63;5115558;28;20618;-68
2022/04/29 04:19:11;;;;;;;14.37;13.13;;;;;;;15.09;86.47;99988.91;5115817;28;20195;-69
2022/04/29 04:21:39;;;;;;;13.33;12.00;;;;;;;15.17;86.34;99984.16;5115404;28;20728;-68
2022/04/29 04:24:07;;;;;;;12.90;11.90;;;;;;;15.10;85.91;99986.03;5115431;28;20194;-69
2022/04/29 04:26:34;;;;;;;13.50;11.83;;;;;;;15.12;85.44;99986.63;5115267;28;20633;-69
2022/04/29 04:29:01;;;;;;;13.83;12.43;;;;;;;15.14;85.60;99989.91;5115801;28;20199;-69
2022/04/29 04:31:30;;;;;;;14.60;12.43;;;;;;;15.24;84.97;99994.81;5111321;28;20222;-69
2022/04/29 04:33:56;;;;;;;13.27;12.17;;;;;;;15.19;84.48;100000.81;5100800;28;20664;-69
2022/04/29 04:36:23;;;;;;;13.57;12.23;;;;;;;15.19;84.98;99991.94;5094232;28;20669;-68
2022/04/29 04:38:50;;;;;;;14.50;13.00;;;;;;;15.27;85.00;99997.03;5094735;28;20191;-68
2022/04/29 04:41:16;;;;;;;13.60;12.23;;;;;;;15.24;84.30;99990.28;5094342;28;20187;-71
2022/04/29 04:43:43;;;;;;;15.53;11.87;;;;;;;15.17;83.51;99999.38;5094753;28;20279;-70
2022/04/29 04:46:12;;;;;;;14.70;13.17;;;;;;;15.23;83.41;99994.00;5094837;28;20191;-69
2022/04/29 04:48:40;;;;;;;16.13;13.20;;;;;;;15.36;83.23;99999.28;5095325;28;20188;-70
2022/04/29 04:51:07;;;;;;;13.20;12.00;;;;;;;15.46;82.07;99999.66;5094860;28;20244;-69
2022/04/29 04:53:33;;;;;;;13.60;12.23;;;;;;;15.44;81.39;99996.38;5094374;28;20761;-69
2022/04/29 04:56:00;;;;;;;14.30;12.87;;;;;;;15.51;81.07;99997.16;5094776;28;20569;-70
2022/04/29 04:58:27;;;;;;;13.13;11.87;;;;;;;15.67;82.31;100001.16;5093571;28;20723;-64
2022/04/29 05:00:54;;;;;;;13.07;11.87;;;;;;;15.80;81.29;99996.56;5094459;28;20657;-63
2022/04/29 05:03:20;;;;;;;12.90;11.60;;;;;;;15.93;79.95;100002.84;5094281;28;20230;-62
2022/04/29 05:05:48;;;;;;;14.00;12.60;;;;;;;16.06;78.72;100005.41;5094128;28;20209;-62
2022/04/29 05:08:15;;;;;;;14.20;12.93;;;;;;;16.09;78.00;100002.31;5094671;28;20192;-62
2022/04/29 05:10:42;;;;;;;13.20;11.93;;;;;;;16.09;77.64;100005.00;5094227;28;20253;-63
2022/04/29 05:13:09;;;;;;;13.33;12.00;;;;;;;16.30;77.79;100005.44;5094321;28;20220;-66
2022/04/29 05:15:36;;;;;;;11.97;10.97;;;;;;;16.41;76.30;100006.59;5093166;28;20257;-65
2022/04/29 05:18:03;;;;;;;16.37;12.13;;;;;;;16.42;75.45;100017.09;5113513;28;20808;-65
2022/04/29 05:20:30;;;;;;;13.10;11.80;;;;;;;16.23;75.04;100014.53;5114432;28;20226;-65
2022/04/29 05:22:58;;;;;;;13.20;11.90;;;;;;;16.27;74.99;100013.06;5114121;28;20202;-71
2022/04/29 05:25:25;;;;;;;13.73;12.33;;;;;;;15.97;75.58;100022.81;5114018;28;20659;-73
2022/04/29 05:27:51;;;;;;;23.13;13.17;;;;;;;15.97;75.61;100020.97;5113679;28;20186;-73
2022/04/29 05:30:19;;;;;;;13.50;12.30;;;;;;;16.12;75.25;100015.28;5113989;28;20552;-73
2022/04/29 05:32:46;;;;;;;15.73;13.17;;;;;;;16.19;74.04;100016.84;5109964;28;20215;-73
2022/04/29 05:35:14;;;;;;;14.23;12.13;;;;;;;16.00;74.00;100017.03;5104636;28;20192;-72
2022/04/29 05:37:41;;;;;;;13.67;12.27;;;;;;;16.08;73.88;100019.44;5110934;28;20263;-72
2022/04/29 05:42:54;;;;;;;13.33;12.07;;;;;;;16.22;73.83;100019.09;5112553;28;20181;-72
2022/04/29 05:45:21;;;;;;;13.43;11.73;;;;;;;16.12;73.29;100015.28;5113458;28;20652;-70
2022/04/29 05:47:47;;;;;;;14.63;12.13;;;;;;;16.20;72.86;100015.00;5111839;28;20190;-70
2022/04/29 05:50:14;;;;;;;15.97;12.70;;;;;;;16.26;72.50;100016.81;5103794;28;20695;-71
2022/04/29 05:52:41;;;;;;;13.93;11.73;;;;;;;16.33;72.23;100018.38;5091234;28;20215;-70
2022/04/29 05:55:11;;;;;;;12.67;11.57;;;;;;;16.25;71.48;100018.66;5091237;28;20627;-70
2022/04/29 05:57:37;;;;;;;11.77;10.80;;;;;;;16.18;71.96;100019.75;5091226;28;20205;-70
2022/04/29 06:00:05;;;;;;;12.87;11.77;;;;;;;16.11;72.47;100030.53;5090980;28;20791;-70
2022/04/29 06:02:33;;;;;;;31.33;13.60;;;;;;;16.24;71.73;100029.59;5091508;28;20811;-70
2022/04/29 06:05:01;;;;;;;13.20;12.00;;;;;;;16.25;71.45;100032.06;5092922;28;20571;-69
2022/04/29 06:07:28;;;;;;;13.47;12.37;;;;;;;16.42;70.86;100037.72;5109428;28;20258;-69
2022/04/29 06:09:54;;;;;;;12.40;11.30;;;;;;;16.45;70.44;100037.28;5112921;28;20661;-69
2022/04/29 06:12:23;;;;;;;15.17;11.57;;;;;;;16.50;70.24;100040.13;5112441;28;20703;-70
2022/04/29 06:14:49;;;;;;;14.43;13.00;;;;;;;16.43;70.67;100036.69;5113210;28;20186;-70
2022/04/29 06:17:16;;;;;;;13.10;11.77;;;;;;;16.36;70.70;100043.91;5113091;28;20195;-69
2022/04/29 06:19:43;;;;;;;13.37;12.10;;;;;;;16.42;70.81;100043.09;5113440;28;20186;-69
2022/04/29 06:22:09;;;;;;;16.50;12.27;;;;;;;16.45;70.22;100042.66;5113171;28;20198;-69
2022/04/29 06:24:37;;;;;;;14.90;12.07;;;;;;;16.57;70.67;100041.69;5104112;28;20195;-69
2022/04/29 06:27:04;;;;;;;12.10;11.00;;;;;;;16.74;69.65;100042.75;5092351;28;20655;-69
2022/04/29 06:29:32;;;;;;;20.10;12.30;;;;;;;16.64;70.17;100042.47;5091960;28;20195;-70
2022/04/29 06:31:59;;;;;;;13.23;12.07;;;;;;;16.52;70.39;100043.41;5092501;28;20670;-71
2022/04/29 06:34:25;;;;;;;14.33;12.37;;;;;;;16.69;69.27;100045.28;5092765;28;20689;-67
2022/04/29 06:36:52;;;;;;;13.43;12.13;;;;;;;16.55;69.03;100048.31;5093054;28;20248;-68
2022/04/29 06:39:19;;;;;;;14.07;12.20;;;;;;;16.80;69.72;100041.06;5092617;28;20187;-68
2022/04/29 06:41:45;;;;;;;15.97;11.63;;;;;;;16.86;67.87;100050.91;5110319;28;20190;-68
2022/04/29 06:44:12;;;;;;;14.87;11.67;;;;;;;16.72;67.86;100050.22;5112546;28;20226;-68
2022/04/29 06:46:40;;;;;;;15.70;13.10;;;;;;;16.75;69.12;100046.28;5112682;28;20212;-68
2022/04/29 06:49:08;;;;;;;15.67;12.00;;;;;;;16.88;68.74;100043.44;5112881;28;20278;-68
2022/04/29 06:51:35;;;;;;;14.33;12.87;;;;;;;17.04;68.70;100042.84;5112619;28;20207;-68
2022/04/29 06:54:03;;;;;;;12.93;11.67;;;;;;;17.01;68.30;100048.66;5111329;28;20216;-68
2022/04/29 06:56:30;;;;;;;12.97;11.83;;;;;;;17.12;68.32;100051.44;5112533;28;20202;-68
2022/04/29 06:58:57;;;;;;;14.87;11.93;;;;;;;17.08;67.12;100049.41;5112496;28;20191;-68
2022/04/29 07:01:23;;;;;;;13.37;12.00;;;;;;;17.03;67.04;100054.63;5111791;28;20670;-69
2022/04/29 07:03:51;;;;;;;15.03;11.77;;;;;;;17.07;67.10;100048.59;5112130;28;20708;-68
2022/04/29 07:06:18;;;;;;;12.60;11.60;;;;;;;17.13;65.11;100062.97;5112859;28;20283;-68
2022/04/29 07:08:45;;;;;;;15.93;12.47;;;;;;;17.19;65.89;100056.72;5112188;28;20187;-68
2022/04/29 07:11:11;;;;;;;19.33;12.80;;;;;;;17.15;65.97;100060.91;5112124;28;20234;-69
2022/04/29 07:13:38;;;;;;;12.60;11.50;;;;;;;17.25;65.79;100053.13;5103294;28;20312;-68
2022/04/29 07:16:06;;;;;;;13.23;12.00;;;;;;;17.34;65.86;100049.09;5092289;28;20247;-69
2022/04/29 07:18:33;;;;;;;12.40;11.10;;;;;;;17.44;65.45;100060.16;5092150;28;20199;-69
2022/04/29 07:21:01;;;;;;;12.60;11.43;;;;;;;17.57;65.46;100055.44;5091977;28;20277;-70
2022/04/29 07:23:28;;;;;;;13.60;12.27;;;;;;;18.03;64.46;100057.44;5092333;28;20195;-71
2022/04/29 07:25:54;;;;;;;14.00;11.73;;;;;;;18.30;62.54;100064.84;5091741;28;20240;-69
2022/04/29 07:28:22;;;;;;;14.97;10.80;;;;;;;18.58;62.59;100062.34;5091735;28;20230;-69
2022/04/29 07:30:48;;;;;;;12.47;11.17;;;;;;;18.73;62.35;100070.78;5091768;28;20198;-69
2022/04/29 07:33:15;;;;;;;12.30;10.97;;;;;;;18.88;60.73;100075.69;5091661;28;20225;-68
2022/04/29 07:43:56;;;;;;;11.40;10.50;;;;;;;19.91;58.38;100071.91;5112123;28;20186;-67
2022/04/29 07:46:23;;;;;;;12.87;11.53;;;;;;;19.91;57.97;100074.59;5112264;28;20186;-67
2022/04/29 07:48:50;;;;;;;23.07;12.57;;;;;;;20.23;57.27;100078.44;5112431;28;20195;-68
2022/04/29 07:51:16;;;;;;;12.60;11.40;;;;;;;20.33;55.86;100075.91;5111950;28;20247;-68
2022/04/29 07:53:44;;;;;;;11.43;10.33;;;;;;;20.33;55.69;100073.19;5111562;28;20767;-68
2022/04/29 07:56:11;;;;;;;12.00;10.73;;;;;;;20.16;56.87;100069.69;5112237;28;20248;-67
2022/04/29 07:58:38;;;;;;;11.47;10.37;;;;;;;20.44;58.69;100066.91;5111600;28;20220;-64
2022/04/29 08:01:06;;;;;;;12.57;9.80;;;;;;;20.98;57.11;100063.44;5111472;28;20198;-68
2022/04/29 08:03:32;;;;;;;11.90;10.70;;;;;;;21.16;54.84;100068.56;5112094;28;20205;-66
2022/04/29 08:05:59;;;;;;;12.53;10.77;;;;;;;21.19;53.81;100069.94;5111800;28;20253;-66
2022/04/29 08:08:26;;;;;;;15.90;11.60;;;;;;;21.14;54.85;100062.56;5111533;28;20183;-65
2022/04/29 08:10:54;;;;;;;11.37;10.47;;;;;;;21.31;54.44;100067.94;5111432;28;20544;-65
2022/04/29 08:13:21;;;;;;;10.87;9.97;;;;;;;21.35;52.42;100075.28;5111402;28;20226;-66
2022/04/29 08:15:49;;;;;;;11.87;10.70;;;;;;;21.05;53.71;100069.47;5115655;28;20247;-66
2022/04/29 08:18:16;;;;;;;12.40;11.10;;;;;;;20.91;54.24;100061.97;5115084;28;20226;-68
2022/04/29 08:20:43;;;;;;;13.00;11.00;;;;;;;20.90;54.95;100063.03;5115231;28;20197;-69
2022/04/29 08:23:11;;;;;;;14.60;10.83;;;;;;;20.83;55.18;100060.50;5115725;28;20283;-67
2022/04/29 08:25:38;;;;;;;11.87;10.87;;;;;;;20.95;54.95;100063.94;5102557;28;20322;-68
2022/04/29 08:28:06;;;;;;;13.07;10.73;;;;;;;20.83;54.17;100065.91;5114009;28;20190;-68
2022/04/29 08:30:33;;;;;;;12.23;10.87;;;;;;;20.99;54.28;100056.97;5112627;28;20244;-67
2022/04/29 08:33:00;;;;;;;11.80;10.00;;;;;;;21.16;53.01;100060.47;5097411;28;20223;-68
2022/04/29 08:35:28;;;;;;;11.03;10.23;;;;;;;21.14;54.16;100056.38;5093280;28;20551;-68
2022/04/29 08:37:56;;;;;;;11.43;10.40;;;;;;;21.05;54.04;100066.78;5094855;28;20191;-68
2022/04/29 08:40:24;;;;;;;10.77;9.97;;;;;;;21.42;53.29;100066.97;5094623;28;20196;-68
2022/04/29 08:42:53;;;;;;;11.53;10.53;;;;;;;21.71;53.25;100061.13;5094542;28;20203;-69
2022/04/29 08:45:22;;;;;;;11.27;10.50;;;;;;;21.80;52.02;100062.31;5098223;28;20203;-68
2022/04/29 08:47:48;;;;;;;12.17;10.00;;;;;;;22.21;50.63;100053.50;5094379;28;20229;-68
2022/04/29 08:50:17;;;;;;;36.30;10.67;;;;;;;22.97;49.95;100052.16;5102894;28;20252;-69
2022/04/29 08:52:44;;;;;;;10.83;9.73;;;;;;;23.09;48.58;100050.91;5103045;28;20640;-68
2022/04/29 09:01:02;;;;;;;12.20;9.73;;;;;;;24.55;43.58;100060.22;5032397;28;20250;-68
2022/04/29 09:03:29;;;;;;;11.10;9.33;;;;;;;24.31;45.05;100051.00;5068839;28;20263;-68
2022/04/29 09:05:55;;;;;;;10.50;9.60;;;;;;;24.22;44.18;100047.97;5096803;28;20275;-69
2022/04/29 09:08:23;;;;;;;10.63;9.80;;;;;;;24.39;44.96;100034.16;5097817;28;20250;-67
2022/04/29 09:10:52;;;;;;;11.03;10.00;;;;;;;24.40;44.13;100039.31;5094447;28;20202;-68
2022/04/29 09:13:20;;;;;;;9.07;8.27;;;;;;;24.56;43.60;100040.94;5093957;28;20222;-70
2022/04/29 09:15:49;;;;;;;10.93;9.30;;;;;;;24.32;42.61;100034.44;5094255;28;20201;-68
2022/04/29 09:18:29;;;;;;;10.07;9.17;;;;;;;24.43;43.54;100030.59;5105583;28;20750;-67
2022/04/29 09:20:55;;;;;;;46.63;12.37;;;;;;;24.78;43.87;100032.47;5115003;28;20189;-67
2022/04/29 09:23:26;;;;;;;9.03;8.37;;;;;;;24.38;42.98;100033.31;5113985;28;20297;-67
2022/04/29 09:25:53;;;;;;;9.47;8.73;;;;;;;24.29;42.29;100034.97;5093962;28;20220;-66
2022/04/29 09:28:20;;;;;;;9.87;9.00;;;;;;;24.16;44.11;100018.38;5094312;28;20193;-67
2022/04/29 09:30:46;;;;;;;10.53;9.60;;;;;;;24.36;44.90;100012.94;5114919;28;20201;-68
2022/04/29 09:33:20;;;;;;;10.60;9.70;;;;;;;24.46;43.72;100018.41;5113648;28;20280;-66
2022/04/29 09:35:47;;;;;;;10.23;9.17;;;;;;;24.15;44.13;100016.78;5113845;28;20242;-67
2022/04/29 09:40:59;;;;;;;10.07;9.27;;;;;;;23.73;45.08;100008.81;5114053;28;20286;-67
2022/04/29 09:43:34;;;;;;;9.90;9.10;;;;;;;23.52;45.76;100006.34;5113894;28;20201;-66
2022/04/29 09:46:15;;;;;;;16.20;9.70;;;;;;;23.50;45.54;100014.75;5113804;28;20191;-67
2022/04/29 09:49:02;;;;;;;9.93;9.13;;;;;;;23.23;46.10;100005.97;5113829;28;20656;-67
2022/04/29 09:51:56;;;;;;;17.50;9.63;;;;;;;23.28;46.30;100000.56;5113410;28;20244;-68
2022/04/29 09:54:26;;;;;;;10.57;9.27;;;;;;;23.22;46.42;100001.66;5113750;28;20284;-67
2022/04/29 09:57:11;;;;;;;15.67;10.70;;;;;;;23.21;47.45;99994.59;5113525;28;20180;-67
2022/04/29 09:59:39;;;;;;;13.70;10.93;;;;;;;23.21;47.78;99991.88;5114048;28;20188;-68
2022/04/29 10:02:07;;;;;;;10.03;9.20;;;;;;;23.34;46.95;99990.56;5113314;28;20195;-67
2022/04/29 10:04:36;;;;;;;11.17;10.23;;;;;;;23.08;46.98;99992.31;5113601;28;20199;-67
2022/04/29 10:07:05;;;;;;;34.80;11.70;;;;;;;23.03;47.52;99992.31;5113252;28;20226;-66
2022/04/29 10:09:33;;;;;;;10.40;9.37;;;;;;;23.25;48.22;99981.31;5113201;28;20252;-66
2022/04/29 10:12:02;;;;;;;10.53;9.53;;;;;;;23.49;47.00;99987.91;5113849;28;20191;-68
2022/04/29 10:14:31;;;;;;;10.57;9.33;;;;;;;23.28;47.15;99981.59;5113517;28;20374;-66
2022/04/29 10:22:37;;;;;;;28.20;11.40;;;;;;;22.38;49.22;99972.16;5092134;28;20572;-66
2022/04/29 10:25:09;;;;;;;10.23;9.53;;;;;;;22.29;49.43;99974.53;5092872;28;20248;-67
2022/04/29 10:27:38;;;;;;;11.77;10.33;;;;;;;22.36;50.30;99967.00;5092682;28;20202;-67
2022/04/29 10:30:06;;;;;;;11.17;10.07;;;;;;;22.32;50.01;99963.19;5092539;28;20213;-66
2022/04/29 10:32:59;;;;;;;11.57;10.37;;;;;;;22.15;50.46;99959.00;5092403;28;20741;-67
2022/04/29 10:35:46;;;;;;;13.17;9.60;;;;;;;22.08;50.18;99975.44;5092032;28;20240;-67
2022/04/29 10:38:14;;;;;;;11.20;10.00;;;;;;;22.24;49.67;99973.66;5092556;28;20191;-67
2022/04/29 10:40:40;;;;;;;11.27;10.00;;;;;;;22.31;49.99;99966.16;5101423;28;20191;-67
2022/04/29 10:43:09;;;;;;;10.90;9.87;;;;;;;22.42;49.55;99962.44;5112605;28;20186;-67
2022/04/29 10:45:37;;;;;;;11.70;10.53;;;;;;;22.54;48.64;99961.19;5112770;28;20206;-68
2022/04/29 10:48:30;;;;;;;11.30;9.73;;;;;;;22.85;48.71;99957.56;5113171;28;20191;-68
2022/04/29 10:50:58;;;;;;;11.17;9.87;;;;;;;23.09;48.26;99958.75;5092255;28;20192;-69
2022/04/29 10:53:27;;;;;;;10.60;9.53;;;;;;;23.27;48.01;99961.00;5092102;28;20223;-67
2022/04/29 10:55:54;;;;;;;15.53;9.17;;;;;;;23.17;46.72;99966.38;5092471;28;20187;-68
2022/04/29 10:58:22;;;;;;;10.50;9.33;;;;;;;23.36;46.98;99964.00;5092373;28;20249;-68
2022/04/29 11:00:56;;;;;;;9.70;8.77;;;;;;;23.41;45.63;99961.31;5104102;28;20238;-68
2022/04/29 11:03:39;;;;;;;12.93;8.97;;;;;;;23.59;45.42;99958.91;5112371;28;20632;-69
2022/04/29 11:06:12;;;;;;;14.60;9.60;;;;;;;23.44;44.68;99961.56;5112676;28;20231;-68
2022/04/29 11:08:39;;;;;;;9.23;8.43;;;;;;;23.42;46.11;99963.75;5111515;28;20187;-68
2022/04/29 11:11:06;;;;;;;10.00;9.30;;;;;;;23.24;45.77;99961.50;5100413;28;20269;-69
2022/04/29 11:13:36;;;;;;;11.37;10.27;;;;;;;23.31;46.62;99951.25;5112471;28;20233;-69
2022/04/29 11:16:11;;;;;;;9.97;9.27;;;;;;;23.51;45.98;99948.56;5112446;28;20236;-70
2022/04/29 11:18:40;;;;;;;10.00;9.00;;;;;;;23.48;45.28;99942.88;5112319;28;20200;-70
2022/04/29 11:26:46;;;;;;;13.03;8.93;;;;;;;23.45;45.76;99941.53;5095999;28;20280;-66
2022/04/29 11:29:13;;;;;;;12.00;9.33;;;;;;;23.65;45.86;99938.03;5112762;28;20256;-66
2022/04/29 11:31:40;;;;;;;9.40;8.80;;;;;;;23.58;44.66;99941.00;5112339;28;20194;-65
2022/04/29 11:34:08;;;;;;;10.07;8.47;;;;;;;23.50;44.36;99938.00;5112217;28;20218;-65
2022/04/29 11:36:35;;;;;;;10.23;9.33;;;;;;;23.45;44.69;99930.69;5112178;28;20252;-66
2022/04/29 11:39:08;;;;;;;9.70;8.90;;;;;;;23.61;45.31;99935.00;5112096;28;20228;-66
2022/04/29 11:41:35;;;;;;;11.13;9.30;;;;;;;23.55;45.35;99929.84;5112332;28;20192;-66
2022/04/29 11:44:03;;;;;;;17.27;10.63;;;;;;;23.57;46.09;99922.28;5112008;28;20202;-65
2022/04/29 11:46:30;;;;;;;9.73;8.77;;;;;;;23.73;45.20;99922.00;5113157;28;20201;-65
2022/04/29 11:48:58;;;;;;;9.43;8.73;;;;;;;23.90;43.51;99922.56;5110889;28;20657;-64
2022/04/29 11:51:26;;;;;;;9.30;8.43;;;;;;;23.63;44.05;99922.00;5115990;28;20681;-65
2022/04/29 11:53:57;;;;;;;8.80;7.97;;;;;;;23.59;44.33;99920.91;5116155;28;20215;-66